createdAt,value
2017-10-14T00:00:44.108Z,101595.11
2017-10-14T00:01:50.289Z,101600.90
2017-10-14T00:02:56.579Z,101599.26
2017-10-14T00:04:02.752Z,101605.92
2017-10-14T00:05:09.073Z,101603.64
2017-10-14T00:06:16.086Z,101606.36
2017-10-14T00:07:22.634Z,101608.12
2017-10-14T00:08:28.992Z,101612.47
2017-10-14T00:09:35.248Z,101610.81
2017-10-14T00:10:41.561Z,101611.60
2017-10-14T00:11:47.890Z,101615.16
2017-10-14T00:12:54.088Z,101617.72
2017-10-14T00:14:00.777Z,101614.05
2017-10-14T00:15:06.910Z,101617.72
2017-10-14T00:16:13.225Z,101617.66
2017-10-14T00:17:19.423Z,101621.31
2017-10-14T00:18:29.423Z,101620.47
2017-10-14T00:19:35.681Z,101621.32
2017-10-14T00:20:41.941Z,101621.32
2017-10-14T00:21:48.161Z,101622.70
2017-10-14T00:22:54.177Z,101621.59
2017-10-14T00:24:00.170Z,101626.47
2017-10-14T00:25:06.627Z,101622.59
2017-10-14T00:26:13.499Z,101619.91
2017-10-14T00:27:19.873Z,101617.13
2017-10-14T00:28:26.024Z,101624.02
2017-10-14T00:29:33.060Z,101623.80
2017-10-14T00:30:39.325Z,101627.12
2017-10-14T00:31:45.474Z,101626.86
2017-10-14T00:32:51.697Z,101625.51
2017-10-14T00:33:57.899Z,101629.03
2017-10-14T00:35:09.306Z,101624.56
2017-10-14T00:36:15.445Z,101626.73
2017-10-14T00:37:21.686Z,101623.17
2017-10-14T00:38:27.850Z,101625.06
2017-10-14T00:39:34.058Z,101628.15
2017-10-14T00:40:40.862Z,101621.84
2017-10-14T00:41:47.454Z,101622.44
2017-10-14T00:42:53.578Z,101624.20
2017-10-14T00:43:59.813Z,101629.30
2017-10-14T00:45:06.059Z,101628.82
2017-10-14T00:46:12.241Z,101621.66
2017-10-14T00:47:18.489Z,101629.02
2017-10-14T00:48:24.657Z,101624.60
2017-10-14T00:49:30.874Z,101627.84
2017-10-14T00:50:36.495Z,101626.92
2017-10-14T00:51:42.759Z,101628.05
2017-10-14T00:52:49.037Z,101628.77
2017-10-14T00:53:55.188Z,101625.34
2017-10-14T00:55:01.992Z,101626.59
2017-10-14T00:56:07.512Z,101629.21
2017-10-14T00:57:13.370Z,101625.27
2017-10-14T00:58:18.627Z,101628.07
2017-10-14T00:59:24.086Z,101623.02
2017-10-14T01:00:29.681Z,101629.22
2017-10-14T01:01:35.098Z,101627.02
2017-10-14T01:02:41.304Z,101631.69
2017-10-14T01:03:47.172Z,101629.21
2017-10-14T01:04:53.040Z,101628.07
2017-10-14T01:05:59.247Z,101635.62
2017-10-14T01:07:05.395Z,101632.90
2017-10-14T01:08:11.899Z,101630.08
2017-10-14T01:09:18.082Z,101629.58
2017-10-14T01:10:24.185Z,101630.11
2017-10-14T01:11:30.516Z,101626.77
2017-10-14T01:12:36.661Z,101629.42
2017-10-14T01:13:42.865Z,101625.78
2017-10-14T01:14:49.107Z,101625.47
2017-10-14T01:15:58.289Z,101625.27
2017-10-14T01:17:04.306Z,101620.06
2017-10-14T01:18:10.465Z,101622.25
2017-10-14T01:19:16.314Z,101624.36
2017-10-14T01:20:22.520Z,101623.64
2017-10-14T01:21:28.000Z,101630.41
2017-10-14T01:22:33.264Z,101625.34
2017-10-14T01:23:38.859Z,101621.45
2017-10-14T01:24:44.342Z,101623.48
2017-10-14T01:25:49.869Z,101625.33
2017-10-14T01:26:55.668Z,101619.66
2017-10-14T01:28:01.046Z,101622.39
2017-10-14T01:29:06.527Z,101621.69
2017-10-14T01:30:12.212Z,101626.22
2017-10-14T01:31:17.549Z,101623.70
2017-10-14T01:32:23.465Z,101627.64
2017-10-14T01:33:28.957Z,101624.72
2017-10-14T01:34:34.196Z,101622.61
2017-10-14T01:35:40.217Z,101624.84
2017-10-14T01:36:45.557Z,101624.11
2017-10-14T01:37:50.850Z,101621.47
2017-10-14T01:38:56.730Z,101625.16
2017-10-14T01:40:02.165Z,101624.20
2017-10-14T01:41:07.904Z,101627.26
2017-10-14T01:42:13.184Z,101625.17
2017-10-14T01:43:19.113Z,101625.77
2017-10-14T01:44:24.604Z,101632.97
2017-10-14T01:45:30.158Z,101631.28
2017-10-14T01:46:35.454Z,101628.16
2017-10-14T01:47:41.309Z,101636.72
2017-10-14T01:48:46.739Z,101629.19
2017-10-14T01:49:52.225Z,101631.78
2017-10-14T01:50:58.506Z,101633.63
2017-10-14T01:52:03.725Z,101634.05
2017-10-14T01:53:09.271Z,101623.28
2017-10-14T01:54:14.723Z,101629.27
2017-10-14T01:55:22.563Z,101622.69
2017-10-14T01:56:28.497Z,101623.94
2017-10-14T01:57:33.810Z,101622.47
2017-10-14T01:58:39.268Z,101620.64
2017-10-14T01:59:44.547Z,101624.38
2017-10-14T02:00:52.635Z,101620.53
2017-10-14T02:01:58.696Z,101617.30
2017-10-14T02:03:04.691Z,101619.86
2017-10-14T02:04:11.061Z,101621.25
2017-10-14T02:05:17.331Z,101618.02
2017-10-14T02:06:23.632Z,101614.31
2017-10-14T02:07:29.949Z,101613.88
2017-10-14T02:08:36.164Z,101614.02
2017-10-14T02:09:42.216Z,101613.95
2017-10-14T02:10:47.812Z,101613.16
2017-10-14T02:11:53.959Z,101611.19
2017-10-14T02:13:00.182Z,101606.58
2017-10-14T02:14:05.544Z,101604.48
2017-10-14T02:15:11.588Z,101602.34
2017-10-14T02:16:17.762Z,101605.95
2017-10-14T02:17:23.984Z,101603.38
2017-10-14T02:18:30.196Z,101600.66
2017-10-14T02:19:36.456Z,101603.56
2017-10-14T02:20:42.758Z,101602.57
2017-10-14T02:21:49.079Z,101605.92
2017-10-14T02:22:55.244Z,101604.23
2017-10-14T02:24:01.628Z,101602.06
2017-10-14T02:25:07.809Z,101599.85
2017-10-14T02:26:14.024Z,101594.84
2017-10-14T02:27:20.288Z,101591.70
2017-10-14T02:28:26.786Z,101594.55
2017-10-14T02:29:33.056Z,101600.13
2017-10-14T02:30:39.324Z,101601.92
2017-10-14T02:31:45.679Z,101601.59
2017-10-14T02:32:51.755Z,101597.72
2017-10-14T02:33:57.779Z,101596.41
2017-10-14T02:35:04.147Z,101595.02
2017-10-14T02:36:10.522Z,101598.03
2017-10-14T02:37:17.508Z,101593.11
2017-10-14T02:38:23.757Z,101601.38
2017-10-14T02:39:30.027Z,101596.61
2017-10-14T02:40:36.140Z,101598.30
2017-10-14T02:41:42.354Z,101596.41
2017-10-14T02:42:48.783Z,101593.14
2017-10-14T02:43:55.679Z,101593.13
2017-10-14T02:45:02.209Z,101589.73
2017-10-14T02:46:08.643Z,101591.52
2017-10-14T02:47:14.827Z,101591.94
2017-10-14T02:48:24.150Z,101593.13
2017-10-14T02:49:30.468Z,101594.69
2017-10-14T02:50:38.650Z,101589.37
2017-10-14T02:51:45.609Z,101586.34
2017-10-14T02:52:52.343Z,101587.67
2017-10-14T02:53:58.483Z,101586.28
2017-10-14T02:55:04.735Z,101588.97
2017-10-14T02:56:10.952Z,101586.24
2017-10-14T02:57:16.941Z,101585.28
2017-10-14T02:58:23.156Z,101590.44
2017-10-14T02:59:29.385Z,101585.71
2017-10-14T03:00:35.551Z,101588.78
2017-10-14T03:01:41.581Z,101589.75
2017-10-14T03:02:47.895Z,101593.94
2017-10-14T03:03:55.047Z,101586.84
2017-10-14T03:05:01.076Z,101589.03
2017-10-14T03:06:07.239Z,101583.13
2017-10-14T03:07:13.448Z,101588.81
2017-10-14T03:08:19.785Z,101598.77
2017-10-14T03:09:25.990Z,101581.16
2017-10-14T03:10:32.047Z,101585.45
2017-10-14T03:11:38.288Z,101588.08
2017-10-14T03:12:44.484Z,101587.47
2017-10-14T03:13:50.702Z,101588.83
2017-10-14T03:14:56.724Z,101583.52
2017-10-14T03:16:02.969Z,101589.22
2017-10-14T03:17:08.937Z,101589.80
2017-10-14T03:18:15.268Z,101589.80
2017-10-14T03:19:22.159Z,101593.89
2017-10-14T03:20:31.860Z,101593.84
2017-10-14T03:21:38.089Z,101594.22
2017-10-14T03:22:44.271Z,101597.27
2017-10-14T03:23:50.493Z,101593.42
2017-10-14T03:24:56.735Z,101594.06
2017-10-14T03:26:02.893Z,101592.77
2017-10-14T03:27:09.149Z,101588.73
2017-10-14T03:28:15.898Z,101590.86
2017-10-14T03:29:22.066Z,101595.64
2017-10-14T03:30:31.594Z,101589.99
2017-10-14T03:31:37.728Z,101586.73
2017-10-14T03:32:43.998Z,101590.63
2017-10-14T03:33:50.153Z,101586.14
2017-10-14T03:34:56.193Z,101585.38
2017-10-14T03:36:02.677Z,101583.44
2017-10-14T03:37:09.032Z,101586.08
2017-10-14T03:38:16.390Z,101589.69
2017-10-14T03:39:22.557Z,101585.69
2017-10-14T03:40:28.736Z,101591.85
2017-10-14T03:41:34.845Z,101587.86
2017-10-14T03:42:41.085Z,101587.78
2017-10-14T03:43:47.311Z,101589.56
2017-10-14T03:44:53.465Z,101581.61
2017-10-14T03:45:59.678Z,101585.58
2017-10-14T03:47:06.746Z,101582.11
2017-10-14T03:48:12.915Z,101589.56
2017-10-14T03:49:19.165Z,101585.34
2017-10-14T03:50:28.952Z,101580.00
2017-10-14T03:51:35.149Z,101580.98
2017-10-14T03:52:41.472Z,101583.73
2017-10-14T03:53:47.673Z,101579.35
2017-10-14T03:54:54.014Z,101590.83
2017-10-14T03:56:00.180Z,101583.17
2017-10-14T03:57:06.994Z,101587.13
2017-10-14T03:58:13.209Z,101580.98
2017-10-14T03:59:19.335Z,101586.64
2017-10-14T04:00:25.777Z,101581.86
2017-10-14T04:01:31.757Z,101584.06
2017-10-14T04:02:37.932Z,101586.27
2017-10-14T04:03:44.200Z,101588.52
2017-10-14T04:04:50.177Z,101584.60
2017-10-14T04:05:56.417Z,101579.67
2017-10-14T04:07:02.580Z,101586.31
2017-10-14T04:08:08.781Z,101581.95
2017-10-14T04:09:15.104Z,101577.45
2017-10-14T04:10:21.331Z,101581.05
2017-10-14T04:11:27.668Z,101579.23
2017-10-14T04:12:33.469Z,101577.09
2017-10-14T04:13:39.662Z,101581.80
2017-10-14T04:14:45.834Z,101583.59
2017-10-14T04:15:52.976Z,101584.89
2017-10-14T04:16:59.040Z,101587.97
2017-10-14T04:18:04.978Z,101590.07
2017-10-14T04:19:11.370Z,101588.55
2017-10-14T04:20:18.018Z,101584.38
2017-10-14T04:21:24.216Z,101586.66
2017-10-14T04:22:30.508Z,101588.33
2017-10-14T04:23:39.834Z,101594.43
2017-10-14T04:24:46.024Z,101594.47
2017-10-14T04:25:52.240Z,101596.58
2017-10-14T04:26:58.448Z,101597.41
2017-10-14T04:28:04.803Z,101587.28
2017-10-14T04:29:10.973Z,101586.84
2017-10-14T04:30:17.303Z,101592.34
2017-10-14T04:31:23.493Z,101593.25
2017-10-14T04:32:29.688Z,101590.69
2017-10-14T04:33:35.919Z,101591.44
2017-10-14T04:34:42.141Z,101592.36
2017-10-14T04:35:48.317Z,101596.26
2017-10-14T04:36:54.682Z,101591.78
2017-10-14T04:38:00.796Z,101597.35
2017-10-14T04:39:07.092Z,101589.66
2017-10-14T04:40:13.311Z,101587.56
2017-10-14T04:41:19.808Z,101583.95
2017-10-14T04:42:26.087Z,101585.63
2017-10-14T04:43:32.316Z,101585.31
2017-10-14T04:44:40.507Z,101577.14
2017-10-14T04:45:49.349Z,101579.99
2017-10-14T04:46:55.356Z,101577.91
2017-10-14T04:48:01.587Z,101578.77
2017-10-14T04:49:07.745Z,101576.51
2017-10-14T04:50:14.752Z,101580.16
2017-10-14T04:51:20.880Z,101576.72
2017-10-14T04:52:27.092Z,101576.72
2017-10-14T04:53:33.299Z,101576.21
2017-10-14T04:54:39.506Z,101588.15
2017-10-14T04:55:45.770Z,101584.53
2017-10-14T04:56:52.115Z,101584.95
2017-10-14T04:57:58.268Z,101577.48
2017-10-14T04:59:04.473Z,101581.46
2017-10-14T05:00:10.761Z,101578.38
2017-10-14T05:01:17.023Z,101573.83
2017-10-14T05:02:23.180Z,101582.65
2017-10-14T05:03:29.444Z,101577.39
2017-10-14T05:04:36.967Z,101582.65
2017-10-14T05:05:43.836Z,101574.72
2017-10-14T05:06:51.115Z,101580.17
2017-10-14T05:07:58.662Z,101574.03
2017-10-14T05:09:05.395Z,101579.35
2017-10-14T05:10:13.100Z,101581.63
2017-10-14T05:11:20.687Z,101575.39
2017-10-14T05:12:29.269Z,101577.56
2017-10-14T05:13:37.070Z,101575.39
2017-10-14T05:14:43.790Z,101571.56
2017-10-14T05:15:50.759Z,101575.27
2017-10-14T05:16:57.630Z,101570.53
2017-10-14T05:18:05.562Z,101576.20
2017-10-14T05:19:12.712Z,101575.02
2017-10-14T05:20:18.856Z,101578.03
2017-10-14T05:21:25.112Z,101577.44
2017-10-14T05:22:32.448Z,101575.33
2017-10-14T05:23:41.862Z,101572.83
2017-10-14T05:24:51.415Z,101570.13
2017-10-14T05:25:58.048Z,101572.47
2017-10-14T05:27:05.673Z,101569.83
2017-10-14T05:28:12.264Z,101574.39
2017-10-14T05:29:20.539Z,101576.66
2017-10-14T05:30:27.242Z,101577.97
2017-10-14T05:31:34.049Z,101571.56
2017-10-14T05:32:40.114Z,101576.77
2017-10-14T05:33:47.261Z,101577.09
2017-10-14T05:34:55.156Z,101577.08
2017-10-14T05:36:02.805Z,101579.48
2017-10-14T05:37:10.545Z,101571.77
2017-10-14T05:38:17.634Z,101575.21
2017-10-14T05:39:24.804Z,101581.05
2017-10-14T05:40:32.488Z,101572.64
2017-10-14T05:41:39.851Z,101575.72
2017-10-14T05:42:47.275Z,101578.02
2017-10-14T05:43:54.119Z,101578.36
2017-10-14T05:45:00.931Z,101575.50
2017-10-14T05:46:07.727Z,101579.01
2017-10-14T05:47:15.349Z,101578.98
2017-10-14T05:48:22.842Z,101576.69
2017-10-14T05:49:30.210Z,101581.09
2017-10-14T05:50:37.276Z,101580.80
2017-10-14T05:51:44.101Z,101578.04
2017-10-14T05:52:50.965Z,101582.11
2017-10-14T05:53:58.334Z,101583.81
2017-10-14T05:55:05.225Z,101583.45
2017-10-14T05:56:12.073Z,101583.02
2017-10-14T05:57:20.362Z,101584.10
2017-10-14T05:58:27.685Z,101582.72
2017-10-14T05:59:36.008Z,101586.29
2017-10-14T06:00:43.760Z,101585.30
2017-10-14T06:01:51.439Z,101578.23
2017-10-14T06:02:59.743Z,101581.50
2017-10-14T06:04:07.327Z,101577.30
2017-10-14T06:05:15.517Z,101583.58
2017-10-14T06:06:23.642Z,101585.44
2017-10-14T06:07:31.674Z,101581.45
2017-10-14T06:08:39.318Z,101580.61
2017-10-14T06:09:46.539Z,101576.61
2017-10-14T06:10:53.835Z,101584.55
2017-10-14T06:12:02.026Z,101581.40
2017-10-14T06:13:12.074Z,101579.13
2017-10-14T06:14:20.522Z,101580.44
2017-10-14T06:15:27.806Z,101584.09
2017-10-14T06:16:35.191Z,101588.11
2017-10-14T06:17:42.325Z,101583.56
2017-10-14T06:18:49.706Z,101586.17
2017-10-14T06:19:57.186Z,101582.94
2017-10-14T06:21:04.951Z,101581.63
2017-10-14T06:22:12.502Z,101590.18
2017-10-14T06:23:20.533Z,101586.52
2017-10-14T06:24:27.871Z,101584.86
2017-10-14T06:25:35.151Z,101588.72
2017-10-14T06:26:46.740Z,101592.77
2017-10-14T06:27:54.035Z,101587.50
2017-10-14T06:29:01.436Z,101590.49
2017-10-14T06:30:08.710Z,101589.31
2017-10-14T06:31:16.651Z,101589.16
2017-10-14T06:32:24.391Z,101589.59
2017-10-14T06:33:30.979Z,101588.69
2017-10-14T06:34:38.204Z,101594.91
2017-10-14T06:35:44.836Z,101595.78
2017-10-14T06:36:50.952Z,101595.64
2017-10-14T06:37:56.934Z,101590.15
2017-10-14T06:39:03.594Z,101592.16
2017-10-14T06:40:09.784Z,101592.69
2017-10-14T06:41:16.076Z,101594.48
2017-10-14T06:42:22.075Z,101591.39
2017-10-14T06:43:29.314Z,101594.48
2017-10-14T06:44:35.594Z,101587.25
2017-10-14T06:45:41.844Z,101595.07
2017-10-14T06:46:48.063Z,101593.65
2017-10-14T06:47:54.039Z,101592.19
2017-10-14T06:49:00.283Z,101592.60
2017-10-14T06:50:06.477Z,101593.78
2017-10-14T06:51:12.518Z,101597.14
2017-10-14T06:52:18.661Z,101593.30
2017-10-14T06:53:24.865Z,101590.99
2017-10-14T06:54:31.171Z,101593.94
2017-10-14T06:55:37.936Z,101596.67
2017-10-14T06:56:44.264Z,101599.17
2017-10-14T06:57:50.419Z,101596.72
2017-10-14T06:58:56.631Z,101597.83
2017-10-14T07:00:02.996Z,101592.72
2017-10-14T07:01:09.161Z,101594.73
2017-10-14T07:02:15.417Z,101590.67
2017-10-14T07:03:21.578Z,101590.84
2017-10-14T07:04:27.808Z,101589.59
2017-10-14T07:05:36.105Z,101584.89
2017-10-14T07:06:44.375Z,101587.35
2017-10-14T07:07:51.092Z,101586.68
2017-10-14T07:08:57.362Z,101582.48
2017-10-14T07:10:04.692Z,101579.98
2017-10-14T07:11:12.108Z,101582.69
2017-10-14T07:12:20.072Z,101582.41
2017-10-14T07:13:27.201Z,101585.33
2017-10-14T07:14:35.075Z,101580.77
2017-10-14T07:15:41.907Z,101583.45
2017-10-14T07:16:49.853Z,101586.75
2017-10-14T07:17:57.950Z,101588.41
2017-10-14T07:19:04.801Z,101586.46
2017-10-14T07:20:10.908Z,101590.21
2017-10-14T07:21:19.298Z,101587.80
2017-10-14T07:22:26.296Z,101589.36
2017-10-14T07:23:35.145Z,101593.02
2017-10-14T07:24:41.776Z,101591.98
2017-10-14T07:25:49.271Z,101596.73
2017-10-14T07:26:57.756Z,101600.81
2017-10-14T07:28:04.718Z,101598.02
2017-10-14T07:29:14.100Z,101596.59
2017-10-14T07:30:20.553Z,101594.95
2017-10-14T07:31:28.394Z,101595.17
2017-10-14T07:32:36.124Z,101594.97
2017-10-14T07:33:43.761Z,101597.96
2017-10-14T07:34:51.220Z,101593.44
2017-10-14T07:35:58.846Z,101595.24
2017-10-14T07:37:05.633Z,101598.30
2017-10-14T07:38:12.758Z,101595.44
2017-10-14T07:39:20.000Z,101598.43
2017-10-14T07:40:27.144Z,101602.56
2017-10-14T07:41:34.025Z,101606.87
2017-10-14T07:42:41.085Z,101603.42
2017-10-14T07:43:48.221Z,101599.64
2017-10-14T07:44:55.458Z,101603.26
2017-10-14T07:46:02.017Z,101603.20
2017-10-14T07:47:11.169Z,101602.89
2017-10-14T07:48:18.495Z,101604.84
2017-10-14T07:49:24.823Z,101604.14
2017-10-14T07:50:30.990Z,101604.41
2017-10-14T07:51:37.749Z,101606.57
2017-10-14T07:52:44.518Z,101606.59
2017-10-14T07:53:52.527Z,101604.88
2017-10-14T07:55:00.217Z,101606.45
2017-10-14T07:56:07.761Z,101608.02
2017-10-14T07:57:15.209Z,101609.95
2017-10-14T07:58:25.795Z,101607.48
2017-10-14T07:59:33.114Z,101603.46
2017-10-14T08:00:40.225Z,101612.16
2017-10-14T08:01:47.772Z,101609.79
2017-10-14T08:02:55.721Z,101607.88
2017-10-14T08:04:03.004Z,101610.04
2017-10-14T08:05:11.537Z,101612.02
2017-10-14T08:06:20.592Z,101605.52
2017-10-14T08:07:28.852Z,101603.17
2017-10-14T08:08:36.160Z,101611.27
2017-10-14T08:09:43.867Z,101608.02
2017-10-14T08:10:50.742Z,101603.00
2017-10-14T08:11:58.892Z,101604.52
2017-10-14T08:13:06.788Z,101604.89
2017-10-14T08:14:18.992Z,101602.45
2017-10-14T08:15:26.947Z,101594.91
2017-10-14T08:34:18.189Z,101592.77
2017-10-14T08:35:26.243Z,101591.72
2017-10-14T08:36:33.550Z,101596.28
2017-10-14T08:37:40.394Z,101591.61
2017-10-14T08:38:48.945Z,101592.34
2017-10-14T08:39:57.407Z,101598.30
2017-10-14T08:41:05.014Z,101592.13
2017-10-14T08:42:12.844Z,101595.66
2017-10-14T08:43:19.657Z,101597.27
2017-10-14T08:44:28.045Z,101600.78
2017-10-14T08:45:34.140Z,101600.75
2017-10-14T08:46:40.319Z,101600.50
2017-10-14T08:47:46.871Z,101594.39
2017-10-14T08:48:53.179Z,101602.63
2017-10-14T08:49:59.342Z,101594.29
2017-10-14T08:51:06.008Z,101606.48
2017-10-14T08:52:12.433Z,101605.30
2017-10-14T08:53:18.573Z,101602.33
2017-10-14T08:54:24.776Z,101602.58
2017-10-14T08:55:30.916Z,101605.92
2017-10-14T08:56:37.316Z,101602.09
2017-10-14T08:57:44.262Z,101604.39
2017-10-14T08:58:50.732Z,101599.32
2017-10-14T08:59:56.708Z,101592.13
2017-10-14T09:01:02.722Z,101608.38
2017-10-14T09:02:08.842Z,101608.55
2017-10-14T09:03:15.659Z,101617.53
2017-10-14T09:04:21.791Z,101608.52
2017-10-14T09:05:28.944Z,101615.05
2017-10-14T09:06:35.338Z,101615.48
2017-10-14T09:07:41.952Z,101617.32
2017-10-14T09:08:48.958Z,101622.56
2017-10-14T09:09:55.089Z,101618.61
2017-10-14T09:11:01.309Z,101624.22
2017-10-14T09:12:12.152Z,101621.73
2017-10-14T09:13:19.110Z,101614.48
2017-10-14T09:14:25.254Z,101624.91
2017-10-14T09:15:32.187Z,101616.27
2017-10-14T09:16:38.408Z,101618.45
2017-10-14T09:17:44.624Z,101620.54
2017-10-14T09:18:50.805Z,101618.95
2017-10-14T09:19:56.915Z,101624.91
2017-10-14T09:21:02.998Z,101619.14
2017-10-14T09:22:08.964Z,101624.23
2017-10-14T09:23:15.158Z,101620.55
2017-10-14T09:24:21.155Z,101618.47
2017-10-14T09:25:27.157Z,101613.98
2017-10-14T09:26:33.160Z,101618.47
2017-10-14T09:27:39.539Z,101615.91
2017-10-14T09:28:45.474Z,101616.33
2017-10-14T09:29:51.486Z,101613.55
2017-10-14T09:30:57.682Z,101609.27
2017-10-14T09:32:03.806Z,101616.07
2017-10-14T09:33:10.031Z,101615.17
2017-10-14T09:34:16.885Z,101610.56
2017-10-14T09:35:23.641Z,101608.98
2017-10-14T09:36:29.891Z,101615.88
2017-10-14T09:37:36.581Z,101607.55
2017-10-14T09:38:43.765Z,101608.45
2017-10-14T09:39:49.924Z,101602.86
2017-10-14T09:40:55.714Z,101613.36
2017-10-14T09:42:02.041Z,101613.09
2017-10-14T09:43:08.788Z,101612.25
2017-10-14T09:44:15.925Z,101612.88
2017-10-14T09:45:24.972Z,101610.31
2017-10-14T09:46:31.627Z,101608.28
2017-10-14T09:47:38.286Z,101611.62
2017-10-14T09:48:45.364Z,101613.79
2017-10-14T09:49:52.689Z,101620.58
2017-10-14T09:51:00.353Z,101617.95
2017-10-14T09:52:07.022Z,101615.06
2017-10-14T09:53:14.213Z,101611.91
2017-10-14T09:54:21.333Z,101618.13
2017-10-14T09:55:27.925Z,101611.84
2017-10-14T09:56:34.559Z,101622.98
2017-10-14T09:57:41.352Z,101608.03
2017-10-14T09:58:50.137Z,101618.66
2017-10-14T09:59:56.319Z,101617.52
2017-10-14T10:01:02.899Z,101619.44
2017-10-14T10:02:09.686Z,101616.19
2017-10-14T10:03:16.425Z,101609.31
2017-10-14T10:04:24.797Z,101607.17
2017-10-14T10:05:34.977Z,101603.61
2017-10-14T10:06:41.211Z,101610.45
2017-10-14T10:07:47.879Z,101602.52
2017-10-14T10:08:54.239Z,101610.42
2017-10-14T10:10:02.295Z,101611.56
2017-10-14T10:11:08.654Z,101609.63
2017-10-14T10:12:18.163Z,101610.45
2017-10-14T10:13:25.347Z,101609.13
2017-10-14T10:14:31.618Z,101606.37
2017-10-14T10:15:37.938Z,101613.77
2017-10-14T10:16:44.102Z,101609.64
2017-10-14T10:17:50.684Z,101608.77
2017-10-14T10:18:57.009Z,101598.39
2017-10-14T10:20:03.361Z,101598.66
2017-10-14T10:21:09.546Z,101608.39
2017-10-14T10:22:15.904Z,101599.11
2017-10-14T10:23:22.096Z,101607.73
2017-10-14T10:24:28.776Z,101600.21
2017-10-14T10:25:36.751Z,101600.80
2017-10-14T10:26:44.656Z,101603.90
2017-10-14T10:27:51.685Z,101597.12
2017-10-14T10:28:59.231Z,101605.05
2017-10-14T10:30:09.460Z,101602.31
2017-10-14T10:31:15.957Z,101602.48
2017-10-14T10:34:10.130Z,101598.91
2017-10-14T10:35:18.731Z,101600.89
2017-10-14T10:36:26.506Z,101600.88
2017-10-14T10:37:36.281Z,101595.70
2017-10-14T10:38:44.435Z,101597.21
2017-10-14T10:39:53.907Z,101592.52
2017-10-14T10:41:02.860Z,101591.61
2017-10-14T10:42:10.471Z,101594.45
2017-10-14T10:43:19.367Z,101586.94
2017-10-14T10:44:27.805Z,101588.25
2017-10-14T10:45:35.164Z,101592.60
2017-10-14T10:46:41.667Z,101590.45
2017-10-14T10:47:49.600Z,101587.48
2017-10-14T10:48:56.551Z,101590.28
2017-10-14T10:50:03.862Z,101591.19
2017-10-14T10:51:12.001Z,101591.19
2017-10-14T10:52:19.522Z,101589.61
2017-10-14T10:53:26.972Z,101589.70
2017-10-14T10:54:33.885Z,101585.01
2017-10-14T10:55:40.758Z,101588.54
2017-10-14T10:56:48.943Z,101585.53
2017-10-14T10:57:55.626Z,101580.53
2017-10-14T10:59:03.781Z,101579.89
2017-10-14T11:00:12.536Z,101583.89
2017-10-14T11:01:19.870Z,101576.95
2017-10-14T11:02:27.858Z,101580.27
2017-10-14T11:03:35.971Z,101583.52
2017-10-14T11:04:43.919Z,101576.78
2017-10-14T11:05:51.467Z,101581.52
2017-10-14T11:06:59.630Z,101576.40
2017-10-14T11:08:06.690Z,101578.77
2017-10-14T11:09:14.198Z,101577.73
2017-10-14T11:10:21.619Z,101576.86
2017-10-14T11:11:30.976Z,101583.88
2017-10-14T11:12:38.693Z,101580.00
2017-10-14T11:13:46.038Z,101583.24
2017-10-14T11:14:53.543Z,101577.77
2017-10-14T11:15:59.698Z,101579.50
2017-10-14T11:17:07.263Z,101580.83
2017-10-14T11:18:13.422Z,101575.55
2017-10-14T11:19:21.053Z,101579.45
2017-10-14T11:20:28.618Z,101576.63
2017-10-14T11:21:36.982Z,101573.42
2017-10-14T11:22:45.747Z,101569.69
2017-10-14T11:23:56.302Z,101571.61
2017-10-14T11:25:04.031Z,101567.18
2017-10-14T11:26:13.457Z,101570.55
2017-10-14T11:27:21.662Z,101571.20
2017-10-14T11:28:28.801Z,101569.73
2017-10-14T11:29:36.508Z,101569.51
2017-10-14T11:30:43.593Z,101568.73
2017-10-14T11:31:52.409Z,101565.46
2017-10-14T11:32:59.747Z,101565.31
2017-10-14T11:34:07.728Z,101566.41
2017-10-14T11:35:14.328Z,101571.00
2017-10-14T11:36:22.178Z,101564.50
2017-10-14T11:37:28.670Z,101565.94
2017-10-14T11:38:36.709Z,101566.16
2017-10-14T11:39:43.725Z,101569.42
2017-10-14T11:40:50.771Z,101572.20
2017-10-14T11:41:57.079Z,101560.89
2017-10-14T11:43:03.901Z,101568.25
2017-10-14T11:44:12.398Z,101557.36
2017-10-14T11:45:18.772Z,101564.12
2017-10-14T11:46:25.036Z,101559.65
2017-10-14T11:47:33.607Z,101559.85
2017-10-14T11:48:40.259Z,101556.93
2017-10-14T11:49:46.398Z,101559.10
2017-10-14T11:50:52.935Z,101565.59
2017-10-14T11:51:59.143Z,101558.17
2017-10-14T11:53:05.627Z,101556.43
2017-10-14T11:54:12.298Z,101556.64
2017-10-14T11:55:19.162Z,101541.38
2017-10-14T11:56:28.261Z,101553.39
2017-10-14T11:57:34.525Z,101552.28
2017-10-14T11:58:41.381Z,101556.13
2017-10-14T11:59:47.672Z,101552.82
2017-10-14T12:00:54.856Z,101550.14
2017-10-14T12:02:03.782Z,101546.92
2017-10-14T12:03:10.207Z,101563.09
2017-10-14T12:04:17.679Z,101560.66
2017-10-14T12:05:25.644Z,101548.19
2017-10-14T12:06:32.387Z,101552.01
2017-10-14T12:07:38.521Z,101549.63
2017-10-14T12:08:46.625Z,101546.47
2017-10-14T12:09:56.848Z,101549.09
2017-10-14T12:11:04.336Z,101545.28
2017-10-14T12:12:10.680Z,101541.29
2017-10-14T12:13:17.360Z,101540.23
2017-10-14T12:14:25.444Z,101541.63
2017-10-14T12:15:32.615Z,101544.06
2017-10-14T12:16:38.900Z,101539.47
2017-10-14T12:17:46.007Z,101537.20
2017-10-14T12:18:54.695Z,101536.97
2017-10-14T12:20:01.114Z,101534.41
2017-10-14T12:21:07.543Z,101531.26
2017-10-14T12:22:15.502Z,101534.14
2017-10-14T12:23:22.192Z,101541.84
2017-10-14T12:24:28.670Z,101530.80
2017-10-14T12:25:34.974Z,101528.39
2017-10-14T12:26:46.380Z,101533.61
2017-10-14T12:27:53.361Z,101527.84
2017-10-14T12:29:00.813Z,101529.22
2017-10-14T12:30:09.334Z,101537.25
2017-10-14T12:31:15.880Z,101538.70
2017-10-14T12:32:22.415Z,101531.38
2017-10-14T12:33:29.683Z,101543.70
2017-10-14T12:34:37.186Z,101539.45
2017-10-14T12:35:43.373Z,101533.23
2017-10-14T12:36:49.819Z,101539.43
2017-10-14T12:37:56.921Z,101538.22
2017-10-14T12:39:03.249Z,101543.66
2017-10-14T12:40:09.533Z,101538.33
2017-10-14T12:41:21.690Z,101546.36
2017-10-14T12:42:32.277Z,101539.13
2017-10-14T12:43:40.672Z,101543.50
2017-10-14T12:44:48.828Z,101538.41
2017-10-14T12:45:56.363Z,101545.80
2017-10-14T12:47:02.728Z,101539.32
2017-10-14T12:48:11.784Z,101535.24
2017-10-14T12:49:18.098Z,101535.36
2017-10-14T12:50:25.320Z,101535.64
2017-10-14T12:51:31.783Z,101533.70
2017-10-14T12:52:43.345Z,101525.62
2017-10-14T12:53:50.747Z,101526.46
2017-10-14T12:54:58.518Z,101530.02
2017-10-14T12:56:07.714Z,101533.12
2017-10-14T12:57:14.546Z,101541.34
2017-10-14T12:58:25.145Z,101526.64
2017-10-14T12:59:36.401Z,101533.11
2017-10-14T13:00:53.274Z,101533.02
2017-10-14T13:01:59.777Z,101530.50
2017-10-14T13:03:06.570Z,101528.48